This is the latest recevied weather packets stored in our database for station/object N0ZMJ-3. If no packets are shown the sender has not sent any weather packets the latest 10 day(s).
| Time | Temp. | Humidity | Pressure | Rain* | Wind** | Luminosity | Snow |
|---|---|---|---|---|---|---|---|
| 1777779143 | 15° C | 51% | 1006.9 hPa | 0 mm | - | - | - |
| 1777778722 | 15° C | 51% | 1006.9 hPa | 0 mm | - | - | - |
| 1777778655 | 15° C | 51% | 1006.9 hPa | 0 mm | - | - | - |
| 1777778303 | 15° C | 51% | 1007 hPa | 0 mm | - | - | - |
| 1777778055 | 15° C | 51% | 1006.9 hPa | 0 mm | - | - | - |
| 1777777882 | 15° C | 51% | 1006.9 hPa | 0 mm | - | - | - |
| 1777777454 | 15.56° C | 49% | 1007.1 hPa | 0 mm | - | - | - |
| 1777777044 | 15.56° C | 48% | 1007 hPa | 0 mm | - | - | - |
| 1777776854 | 15.56° C | 47% | 1006.8 hPa | 0 mm | - | - | - |
| 1777776622 | 15.56° C | 47% | 1006.8 hPa | 0 mm | - | - | - |
| 1777776256 | 16.11° C | 46% | 1007 hPa | 0 mm | - | - | - |
| 1777776203 | 16.11° C | 46% | 1007 hPa | 0 mm | - | - | - |
| 1777775784 | 16.11° C | 45% | 1007 hPa | 0 mm | - | - | - |
| 1777775656 | 16.67° C | 44% | 1007 hPa | 0 mm | - | - | - |
| 1777775363 | 16.67° C | 44% | 1006.9 hPa | 0 mm | - | - | - |
| 1777775056 | 16.67° C | 43% | 1006.9 hPa | 0 mm | - | - | - |
| 1777774945 | 16.67° C | 43% | 1006.9 hPa | 0 mm | - | - | - |
| 1777774527 | 17.22° C | 43% | 1007.1 hPa | 0 mm | - | - | - |
| 1777774455 | 16.67° C | 43% | 1007.1 hPa | 0 mm | - | - | - |
| 1777774107 | 16.67° C | 44% | 1007.1 hPa | 0 mm | - | - | - |
| 1777773855 | 16.67° C | 43% | 1006.8 hPa | 0 mm | - | - | - |
| 1777773686 | 16.67° C | 43% | 1006.8 hPa | 0 mm | - | - | - |
| 1777773255 | 17.22° C | 43% | 1007.1 hPa | 0 mm | - | - | - |
| 1777772847 | 17.22° C | 43% | 1007.1 hPa | 0 mm | - | - | - |
| 1777772655 | 17.22° C | 43% | 1007.1 hPa | 0 mm | - | - | - |
* Rain latest hour (hover to see other rain measurements)
** Current wind speed in m/s (hover to see current wind gust speed)